createdAt,value
2022-11-16T00:01:41.381Z,33.33
2022-11-16T00:04:11.961Z,29.50
2022-11-16T00:06:40.037Z,33.00
2022-11-16T00:09:28.732Z,33.00
2022-11-16T00:11:58.255Z,31.00
2022-11-16T00:14:28.127Z,26.00
2022-11-16T00:16:57.511Z,29.80
2022-11-16T00:19:25.777Z,22.50
2022-11-16T00:21:53.996Z,26.00
2022-11-16T00:24:23.427Z,31.40
2022-11-16T00:26:51.834Z,32.40
2022-11-16T00:29:20.970Z,29.60
2022-11-16T00:31:49.419Z,28.00
2022-11-16T00:34:19.069Z,33.00
2022-11-16T00:36:47.160Z,28.25
2022-11-16T00:39:15.705Z,29.25
2022-11-16T00:41:44.092Z,34.75
2022-11-16T00:44:12.230Z,31.25
2022-11-16T00:46:40.304Z,33.00
2022-11-16T00:49:08.696Z,28.40
2022-11-16T00:51:38.183Z,33.00
2022-11-16T00:54:07.339Z,28.60
2022-11-16T00:56:37.158Z,30.75
2022-11-16T00:59:06.384Z,33.25
2022-11-16T01:01:34.553Z,34.60
2022-11-16T01:04:03.029Z,30.00
2022-11-16T01:06:31.086Z,32.50
2022-11-16T01:09:02.917Z,32.40
2022-11-16T01:11:48.274Z,29.60
2022-11-16T01:14:16.328Z,35.00
2022-11-16T01:16:44.863Z,33.00
2022-11-16T01:19:12.891Z,36.33
2022-11-16T01:21:40.910Z,33.40
2022-11-16T01:24:10.360Z,33.00
2022-11-16T01:26:38.429Z,37.33
2022-11-16T01:29:06.649Z,28.60
2022-11-16T01:31:40.214Z,35.00
2022-11-16T01:34:08.330Z,28.00
2022-11-16T01:36:36.836Z,33.00
2022-11-16T01:39:05.941Z,32.00
2022-11-16T01:41:45.548Z,33.00
2022-11-16T01:44:51.775Z,33.20
2022-11-16T01:47:20.448Z,34.75
2022-11-16T01:49:50.211Z,41.00
2022-11-16T01:52:22.669Z,33.00
2022-11-16T01:54:52.650Z,37.00
2022-11-16T01:57:24.471Z,33.50
2022-11-16T02:00:01.436Z,32.80
2022-11-16T02:02:41.674Z,35.00
2022-11-16T02:05:19.816Z,34.60
2022-11-16T02:08:27.782Z,36.75
2022-11-16T02:11:06.151Z,35.75
2022-11-16T02:13:42.243Z,36.00
2022-11-16T02:16:17.649Z,37.25
2022-11-16T02:18:50.087Z,36.00
2022-11-16T02:21:23.313Z,38.50
2022-11-16T02:24:28.386Z,34.00
2022-11-16T02:27:27.282Z,34.50
2022-11-16T02:29:57.132Z,38.25
2022-11-16T02:32:28.229Z,36.25
2022-11-16T02:34:58.106Z,35.40
2022-11-16T02:37:26.727Z,35.50
2022-11-16T02:39:57.381Z,33.50
2022-11-16T02:42:27.342Z,34.25
2022-11-16T02:44:57.624Z,42.00
2022-11-16T02:47:27.509Z,34.25
2022-11-16T02:49:57.909Z,34.00
2022-11-16T02:52:25.944Z,36.50
2022-11-16T02:54:54.024Z,39.00
2022-11-16T02:57:41.167Z,39.40
2022-11-16T03:00:20.769Z,33.00
2022-11-16T03:02:53.515Z,35.00
2022-11-16T03:05:32.032Z,34.60
2022-11-16T03:08:17.169Z,38.00
2022-11-16T03:11:04.164Z,37.50
2022-11-16T03:13:33.413Z,35.75
2022-11-16T03:16:05.485Z,39.00
2022-11-16T03:18:34.359Z,37.50
2022-11-16T03:21:06.791Z,40.40
2022-11-16T03:23:35.016Z,40.60
2022-11-16T03:26:03.382Z,39.33
2022-11-16T03:28:37.757Z,35.00
2022-11-16T03:31:08.992Z,39.67
2022-11-16T03:33:38.608Z,34.25
2022-11-16T03:36:08.775Z,37.50
2022-11-16T03:38:37.459Z,36.60
2022-11-16T03:41:08.005Z,37.00
2022-11-16T03:43:36.275Z,42.00
2022-11-16T03:46:07.427Z,39.50
2022-11-16T03:48:36.528Z,38.33
2022-11-16T03:51:09.781Z,37.00
2022-11-16T03:53:38.881Z,41.00
2022-11-16T03:56:07.250Z,38.80
2022-11-16T03:58:35.574Z,35.40
2022-11-16T04:01:04.534Z,37.00
2022-11-16T04:03:33.955Z,36.80
2022-11-16T04:06:19.804Z,41.00
2022-11-16T04:09:05.248Z,37.00
2022-11-16T04:11:51.003Z,37.00
2022-11-16T04:14:38.749Z,42.00
2022-11-16T04:17:29.601Z,37.00
2022-11-16T04:20:16.413Z,41.00
2022-11-16T04:23:04.155Z,38.00
2022-11-16T04:25:33.101Z,43.00
2022-11-16T04:28:16.389Z,37.75
2022-11-16T04:31:16.052Z,44.20
2022-11-16T04:34:08.192Z,41.60
2022-11-16T04:36:55.266Z,38.00
2022-11-16T04:39:23.420Z,41.00
2022-11-16T04:42:09.072Z,41.00
2022-11-16T04:44:54.904Z,43.00
2022-11-16T04:47:25.920Z,41.00
2022-11-16T04:49:54.008Z,38.75
2022-11-16T04:52:24.428Z,42.80
2022-11-16T04:54:54.830Z,41.00
2022-11-16T04:57:23.612Z,42.80
2022-11-16T04:59:52.140Z,38.33
2022-11-16T05:02:21.126Z,42.40
2022-11-16T05:04:59.632Z,38.80
2022-11-16T05:07:29.793Z,42.00
2022-11-16T05:10:05.846Z,41.00
2022-11-16T05:12:34.494Z,41.00
2022-11-16T05:15:05.433Z,42.20
2022-11-16T05:17:34.654Z,42.60
2022-11-16T05:20:21.510Z,43.00
2022-11-16T05:22:57.745Z,38.00
2022-11-16T05:25:35.291Z,38.25
2022-11-16T05:28:06.287Z,44.40
2022-11-16T05:30:38.298Z,42.00
2022-11-16T05:33:06.529Z,41.50
2022-11-16T05:35:39.252Z,44.00
2022-11-16T05:38:09.183Z,43.25
2022-11-16T05:40:42.392Z,38.00
2022-11-16T05:43:10.464Z,35.00
2022-11-16T05:45:44.971Z,43.00
2022-11-16T05:48:16.314Z,39.00
2022-11-16T05:50:44.816Z,37.00
2022-11-16T05:53:21.409Z,37.75
2022-11-16T05:55:50.183Z,37.80
2022-11-16T05:58:19.822Z,38.40
2022-11-16T06:00:51.106Z,37.00
2022-11-16T06:03:20.734Z,35.00
2022-11-16T06:05:48.818Z,38.00
2022-11-16T06:08:18.649Z,38.40
2022-11-16T06:10:48.749Z,34.20
2022-11-16T06:13:17.079Z,42.00
2022-11-16T06:15:50.881Z,38.80
2022-11-16T06:18:19.586Z,37.60
2022-11-16T06:20:50.891Z,39.50
2022-11-16T06:23:21.463Z,42.00
2022-11-16T06:25:55.751Z,38.00
2022-11-16T06:28:26.204Z,37.60
2022-11-16T06:30:55.583Z,38.80
2022-11-16T06:33:27.657Z,37.50
2022-11-16T06:35:59.445Z,42.00
2022-11-16T06:38:28.164Z,38.75
2022-11-16T06:40:59.484Z,37.00
2022-11-16T06:43:29.922Z,32.20
2022-11-16T06:45:58.861Z,41.00
2022-11-16T06:48:26.957Z,34.60
2022-11-16T06:50:55.454Z,37.00
2022-11-16T06:53:29.004Z,37.25
2022-11-16T06:56:03.553Z,42.00
2022-11-16T06:58:33.440Z,39.60
2022-11-16T07:01:07.031Z,38.00
2022-11-16T07:03:36.060Z,38.00
2022-11-16T07:06:07.977Z,38.00
2022-11-16T07:08:36.909Z,38.50
2022-11-16T07:11:07.059Z,38.00
2022-11-16T07:13:35.584Z,35.40
2022-11-16T07:16:05.215Z,37.00
2022-11-16T07:18:34.299Z,35.50
2022-11-16T07:21:06.979Z,35.00
2022-11-16T07:23:35.076Z,34.00
2022-11-16T07:26:03.761Z,33.00
2022-11-16T07:28:47.946Z,32.60
2022-11-16T07:31:19.230Z,36.00
2022-11-16T07:33:47.850Z,35.00
2022-11-16T07:36:38.455Z,35.00
2022-11-16T07:39:09.337Z,35.80
2022-11-16T07:41:38.347Z,34.60
2022-11-16T07:44:17.895Z,31.00
2022-11-16T07:46:58.839Z,36.50
2022-11-16T07:49:26.912Z,37.00
2022-11-16T07:51:57.989Z,33.00
2022-11-16T07:54:52.030Z,34.40
2022-11-16T07:57:22.085Z,34.60
2022-11-16T07:59:52.135Z,32.60
2022-11-16T08:02:20.259Z,30.00
2022-11-16T08:04:49.794Z,32.50
2022-11-16T08:07:20.115Z,33.75
2022-11-16T08:09:53.480Z,29.50
2022-11-16T08:12:22.677Z,31.00
2022-11-16T08:14:52.423Z,32.50
2022-11-16T08:17:20.543Z,37.00
2022-11-16T08:19:48.904Z,27.80
2022-11-16T08:22:17.789Z,35.00
2022-11-16T08:24:47.256Z,25.00
2022-11-16T08:27:17.065Z,31.00
2022-11-16T08:29:47.824Z,32.40
2022-11-16T08:32:17.309Z,32.75
2022-11-16T08:34:45.591Z,33.80
2022-11-16T08:37:13.850Z,29.00
2022-11-16T08:39:45.418Z,30.75
2022-11-16T08:42:13.545Z,28.00
2022-11-16T08:44:45.796Z,32.60
2022-11-16T08:47:17.486Z,36.50
2022-11-16T08:49:50.013Z,32.00
2022-11-16T08:52:19.757Z,26.40
2022-11-16T08:54:48.468Z,30.75
2022-11-16T08:57:17.733Z,31.60
2022-11-16T08:59:48.780Z,33.00
2022-11-16T09:02:25.433Z,26.00
2022-11-16T09:04:53.692Z,31.00
2022-11-16T09:07:21.871Z,28.40
2022-11-16T09:09:49.942Z,28.00
2022-11-16T09:12:18.027Z,32.00
2022-11-16T09:14:46.093Z,28.00
2022-11-16T09:17:16.576Z,34.80
2022-11-16T09:19:49.653Z,31.80
2022-11-16T09:22:17.714Z,28.50
2022-11-16T09:24:45.744Z,30.50
2022-11-16T09:27:14.985Z,35.25
2022-11-16T09:29:43.014Z,32.00
2022-11-16T09:32:11.106Z,28.75
2022-11-16T09:34:39.152Z,34.50
2022-11-16T09:37:09.159Z,29.75
2022-11-16T09:39:37.200Z,34.20
2022-11-16T09:42:11.166Z,36.50
2022-11-16T09:45:00.649Z,29.00
2022-11-16T09:47:41.148Z,31.00
2022-11-16T09:50:09.647Z,30.40
2022-11-16T09:52:40.722Z,26.67
2022-11-16T09:55:21.219Z,25.25
2022-11-16T09:57:49.289Z,33.40
2022-11-16T10:00:21.286Z,30.00
2022-11-16T10:02:49.788Z,26.00
2022-11-16T10:05:20.897Z,27.20
2022-11-16T10:07:51.496Z,24.00
2022-11-16T10:10:22.167Z,26.60
2022-11-16T10:12:52.136Z,30.40
2022-11-16T10:15:34.321Z,29.00
2022-11-16T10:18:08.726Z,29.20
2022-11-16T10:20:51.770Z,35.60
2022-11-16T10:23:27.597Z,30.40
2022-11-16T10:25:59.089Z,31.50
2022-11-16T10:28:40.139Z,28.20
2022-11-16T10:31:11.647Z,31.00
2022-11-16T10:33:39.687Z,30.50
2022-11-16T10:36:10.837Z,24.00
2022-11-16T10:38:40.224Z,26.25
2022-11-16T10:41:16.097Z,31.00
2022-11-16T10:43:44.141Z,26.00
2022-11-16T10:46:14.392Z,23.00
2022-11-16T10:48:44.272Z,24.60
2022-11-16T10:51:12.338Z,23.60
2022-11-16T10:53:42.521Z,25.00
2022-11-16T10:56:18.697Z,20.60
2022-11-16T10:58:57.460Z,23.60
2022-11-16T11:01:36.889Z,20.00
2022-11-16T11:04:21.104Z,19.00
2022-11-16T11:06:51.492Z,22.00
2022-11-16T11:09:29.134Z,23.00
2022-11-16T11:12:22.701Z,19.00
2022-11-16T11:15:05.759Z,24.75
2022-11-16T11:17:34.736Z,23.00
2022-11-16T11:20:04.273Z,22.50
2022-11-16T11:22:33.071Z,21.00
2022-11-16T11:25:03.528Z,19.50
2022-11-16T11:27:34.761Z,22.20
2022-11-16T11:30:03.909Z,20.00
2022-11-16T11:32:35.870Z,19.60
2022-11-16T11:35:03.959Z,20.00
2022-11-16T11:37:34.134Z,25.25
2022-11-16T11:40:20.938Z,20.80
2022-11-16T11:42:59.480Z,23.25
2022-11-16T11:45:37.349Z,25.40
2022-11-16T11:48:08.472Z,19.20
2022-11-16T11:50:44.313Z,23.00
2022-11-16T11:53:25.147Z,21.00
2022-11-16T11:55:57.750Z,21.80
2022-11-16T11:58:29.590Z,19.60
2022-11-16T12:01:05.206Z,22.00
2022-11-16T12:03:51.599Z,25.50
2022-11-16T12:06:20.959Z,19.50
2022-11-16T12:09:00.117Z,19.80
2022-11-16T12:11:32.673Z,20.75
2022-11-16T12:14:10.052Z,23.20
2022-11-16T12:16:40.200Z,27.25
2022-11-16T12:19:33.408Z,20.00
2022-11-16T12:22:07.529Z,27.00
2022-11-16T12:24:42.192Z,38.00
2022-11-16T12:27:16.935Z,24.60
2022-11-16T12:29:47.858Z,18.00
2022-11-16T12:32:30.203Z,21.50
2022-11-16T12:35:05.846Z,23.20
2022-11-16T12:37:36.534Z,22.50
2022-11-16T12:40:16.292Z,22.20
2022-11-16T12:42:47.099Z,18.00
2022-11-16T12:45:28.983Z,26.60
2022-11-16T12:48:20.611Z,20.00
2022-11-16T12:50:53.631Z,21.80
2022-11-16T12:53:52.758Z,22.60
2022-11-16T12:56:26.242Z,23.40
2022-11-16T12:59:18.141Z,22.00
2022-11-16T13:01:49.183Z,19.20
2022-11-16T13:04:19.296Z,20.00
2022-11-16T13:06:49.587Z,17.60
2022-11-16T13:09:18.505Z,19.00
2022-11-16T13:11:48.592Z,16.50
2022-11-16T13:14:19.257Z,23.50
2022-11-16T13:16:47.367Z,16.00
2022-11-16T13:19:16.028Z,19.00
2022-11-16T13:21:48.860Z,17.60
2022-11-16T13:24:38.584Z,16.00
2022-11-16T13:27:28.086Z,17.00
2022-11-16T13:30:00.194Z,16.00
2022-11-16T13:32:34.877Z,19.20
2022-11-16T13:35:04.408Z,26.00
2022-11-16T13:37:48.602Z,18.50
2022-11-16T13:40:30.269Z,14.00
2022-11-16T13:43:16.028Z,12.40
2022-11-16T13:45:52.034Z,16.00
2022-11-16T13:48:20.794Z,10.60
2022-11-16T13:50:50.660Z,17.50
2022-11-16T13:56:13.340Z,21.50
2022-11-16T13:58:45.770Z,18.00
2022-11-16T14:01:18.272Z,13.40
2022-11-16T14:03:46.415Z,20.40
2022-11-16T14:06:52.004Z,11.20
2022-11-16T14:09:42.456Z,17.00
2022-11-16T14:12:56.251Z,27.40
2022-11-16T14:15:26.242Z,38.00
2022-11-16T14:17:58.126Z,32.75
2022-11-16T14:20:31.319Z,23.00
2022-11-16T14:23:08.581Z,20.00
2022-11-16T14:25:41.234Z,30.25
2022-11-16T14:28:30.787Z,11.00
2022-11-16T14:31:06.943Z,16.50
2022-11-16T14:33:37.258Z,12.00
2022-11-16T14:36:07.527Z,13.80
2022-11-16T14:38:36.256Z,13.00
2022-11-16T14:41:05.354Z,11.25
2022-11-16T14:43:35.774Z,12.67
2022-11-16T14:46:05.669Z,12.00
2022-11-16T14:48:33.735Z,10.40
2022-11-16T14:51:08.934Z,14.00
2022-11-16T14:53:39.543Z,17.67
2022-11-16T14:56:09.419Z,22.40
2022-11-16T14:58:37.529Z,12.75
2022-11-16T15:01:06.952Z,22.00
2022-11-16T15:03:38.449Z,12.40
2022-11-16T15:06:08.302Z,16.60
2022-11-16T15:08:38.966Z,22.00
2022-11-16T15:11:09.239Z,18.00
2022-11-16T15:13:37.457Z,22.60
2022-11-16T15:16:09.627Z,15.33
2022-11-16T15:18:37.690Z,29.60
2022-11-16T15:21:07.408Z,26.80
2022-11-16T15:23:35.870Z,18.80
2022-11-16T15:26:04.708Z,29.40
2022-11-16T15:28:33.265Z,18.00
2022-11-16T15:31:02.474Z,17.60
2022-11-16T15:33:31.671Z,18.00
2022-11-16T15:35:59.955Z,35.00
2022-11-16T15:38:30.250Z,30.25
2022-11-16T15:40:59.655Z,11.00
2022-11-16T15:43:29.859Z,7.50
2022-11-16T15:45:57.907Z,14.50
2022-11-16T15:48:26.303Z,13.00
2022-11-16T15:51:07.140Z,10.00
2022-11-16T15:53:38.167Z,12.00
2022-11-16T15:56:07.205Z,5.00
2022-11-16T15:58:38.376Z,10.60
2022-11-16T16:01:06.616Z,5.00
2022-11-16T16:03:35.641Z,6.50
2022-11-16T16:06:04.062Z,7.50
2022-11-16T16:08:33.707Z,7.50
2022-11-16T16:11:09.465Z,4.00
2022-11-16T16:13:38.465Z,22.00
2022-11-16T16:16:14.615Z,9.00
2022-11-16T16:18:43.447Z,7.25
2022-11-16T16:21:11.579Z,5.00
2022-11-16T16:23:45.636Z,8.00
2022-11-16T16:26:15.193Z,6.50
2022-11-16T16:28:43.336Z,7.75
2022-11-16T16:31:11.369Z,7.00
2022-11-16T16:33:39.478Z,14.50
2022-11-16T16:36:08.073Z,11.20
2022-11-16T16:38:36.087Z,18.75
2022-11-16T16:41:05.122Z,12.00
2022-11-16T16:43:34.909Z,12.50
2022-11-16T16:46:04.383Z,12.00
2022-11-16T16:48:32.453Z,7.00
2022-11-16T16:51:00.483Z,13.60
2022-11-16T16:53:28.541Z,12.00
2022-11-16T16:55:56.564Z,5.00
2022-11-16T16:58:24.613Z,12.00
2022-11-16T17:00:59.868Z,8.75
2022-11-16T17:03:29.269Z,4.00
2022-11-16T17:06:00.982Z,5.00
2022-11-16T17:08:29.058Z,12.00
2022-11-16T17:10:57.232Z,21.80
2022-11-16T17:13:25.291Z,7.50
2022-11-16T17:15:54.671Z,7.00
2022-11-16T17:18:23.771Z,7.00
2022-11-16T17:20:51.802Z,4.60
2022-11-16T17:23:19.857Z,5.80
2022-11-16T17:25:47.887Z,8.20
2022-11-16T17:28:15.948Z,7.75
2022-11-16T17:30:43.977Z,4.60
2022-11-16T17:33:13.389Z,6.20
2022-11-16T17:35:41.573Z,5.00
2022-11-16T17:38:09.887Z,8.00
2022-11-16T17:40:37.882Z,8.00
2022-11-16T17:43:05.912Z,7.00
2022-11-16T17:45:33.987Z,9.00
2022-11-16T17:48:02.003Z,7.00
2022-11-16T17:50:31.411Z,6.00
2022-11-16T17:52:59.445Z,5.00
2022-11-16T17:55:27.505Z,5.00
2022-11-16T17:57:55.535Z,14.75
2022-11-16T18:00:23.669Z,5.00
2022-11-16T18:02:51.695Z,7.00
2022-11-16T18:05:19.747Z,7.00
2022-11-16T18:07:49.136Z,7.00
2022-11-16T18:10:19.319Z,5.00
2022-11-16T18:12:47.610Z,5.00
2022-11-16T18:15:27.961Z,7.00
2022-11-16T18:17:57.149Z,6.00
2022-11-16T18:20:25.203Z,5.00
2022-11-16T18:22:54.583Z,4.00
2022-11-16T18:25:22.634Z,4.00
2022-11-16T18:27:52.937Z,4.00
2022-11-16T18:30:21.103Z,7.25
2022-11-16T18:32:49.212Z,4.00
2022-11-16T18:35:17.745Z,4.20
2022-11-16T18:37:45.772Z,5.00
2022-11-16T18:40:15.712Z,4.80
2022-11-16T18:42:43.748Z,5.00
2022-11-16T18:45:11.909Z,5.00
2022-11-16T18:47:39.927Z,4.50
2022-11-16T18:50:19.055Z,5.00
2022-11-16T18:52:48.226Z,4.00
2022-11-16T18:55:17.739Z,3.00
2022-11-16T18:57:45.760Z,3.00
2022-11-16T19:00:15.283Z,3.00
2022-11-16T19:02:43.335Z,4.00
2022-11-16T19:05:11.390Z,7.00
2022-11-16T19:07:39.453Z,4.00
2022-11-16T19:10:08.816Z,4.00
2022-11-16T19:12:38.209Z,3.00
2022-11-16T19:15:07.116Z,3.00
2022-11-16T19:17:43.658Z,3.00
2022-11-16T19:20:23.180Z,4.00
2022-11-16T19:22:51.218Z,4.00
2022-11-16T19:25:19.243Z,4.00
2022-11-16T19:27:48.633Z,4.00
2022-11-16T19:30:16.848Z,6.00
2022-11-16T19:32:44.888Z,4.00
2022-11-16T19:35:16.014Z,3.40
2022-11-16T19:37:44.124Z,3.75
2022-11-16T19:40:13.114Z,4.20
2022-11-16T19:42:42.904Z,4.00
2022-11-16T19:45:12.972Z,2.25
2022-11-16T19:47:40.994Z,4.00
2022-11-16T19:50:11.912Z,4.00
2022-11-16T19:52:39.948Z,6.60
2022-11-16T19:55:08.595Z,3.00
2022-11-16T19:57:36.640Z,6.50
2022-11-16T20:00:05.474Z,4.80
2022-11-16T20:02:36.558Z,7.00
2022-11-16T20:05:04.834Z,6.40
2022-11-16T20:07:32.935Z,6.60
2022-11-16T20:10:01.045Z,6.50
2022-11-16T20:12:29.093Z,6.00
2022-11-16T20:14:57.213Z,7.50
2022-11-16T20:17:25.245Z,6.00
2022-11-16T20:19:54.661Z,7.20
2022-11-16T20:22:22.699Z,9.00
2022-11-16T20:24:50.747Z,9.00
2022-11-16T20:27:18.767Z,8.75
2022-11-16T20:29:46.820Z,7.00
2022-11-16T20:32:14.860Z,7.50
2022-11-16T20:34:42.920Z,7.00
2022-11-16T20:37:12.312Z,12.00
2022-11-16T20:39:41.986Z,7.00
2022-11-16T20:42:10.020Z,7.25
2022-11-16T20:44:38.078Z,8.20
2022-11-16T20:47:06.464Z,10.00
2022-11-16T20:49:34.520Z,10.00
2022-11-16T20:52:02.556Z,10.40
2022-11-16T20:54:32.165Z,8.40
2022-11-16T20:57:00.187Z,8.00
2022-11-16T20:59:28.240Z,9.00
2022-11-16T21:01:56.294Z,10.80
2022-11-16T21:04:24.340Z,10.00
2022-11-16T21:06:52.411Z,10.00
2022-11-16T21:09:23.332Z,9.50
2022-11-16T21:12:10.075Z,10.00
2022-11-16T21:14:38.150Z,11.20
2022-11-16T21:17:06.228Z,13.00
2022-11-16T21:19:34.298Z,10.50
2022-11-16T21:22:02.329Z,10.40
2022-11-16T21:24:32.199Z,12.00
2022-11-16T21:27:01.596Z,13.00
2022-11-16T21:29:30.495Z,12.00
2022-11-16T21:31:58.518Z,10.20
2022-11-16T21:34:28.692Z,15.50
2022-11-16T21:36:56.720Z,51.00
2022-11-16T21:39:25.299Z,15.00
2022-11-16T21:41:53.359Z,12.00
2022-11-16T21:44:22.767Z,10.00
2022-11-16T21:46:50.790Z,14.00
2022-11-16T21:49:18.841Z,10.00
2022-11-16T21:51:46.866Z,12.00
2022-11-16T21:54:14.926Z,19.20
2022-11-16T21:56:42.968Z,10.00
2022-11-16T21:59:11.024Z,12.00
2022-11-16T22:01:54.370Z,13.00
2022-11-16T22:04:40.040Z,14.00
2022-11-16T22:07:30.204Z,12.60
2022-11-16T22:09:58.304Z,12.00
2022-11-16T22:12:26.331Z,10.20
2022-11-16T22:14:54.389Z,19.60
2022-11-16T22:17:23.774Z,9.00
2022-11-16T22:19:51.827Z,14.60
2022-11-16T22:22:19.852Z,13.00
2022-11-16T22:24:48.011Z,10.80
2022-11-16T22:27:16.196Z,12.00
2022-11-16T22:29:44.256Z,10.60
2022-11-16T22:32:12.283Z,8.50
2022-11-16T22:34:41.700Z,13.40
2022-11-16T22:37:09.736Z,10.00
2022-11-16T22:39:37.916Z,13.80
2022-11-16T22:42:06.104Z,12.00
2022-11-16T22:44:34.165Z,11.50
2022-11-16T22:47:02.688Z,13.00
2022-11-16T22:49:30.753Z,10.50
2022-11-16T22:52:00.157Z,8.00
2022-11-16T22:54:30.252Z,12.80
2022-11-16T22:56:58.339Z,12.00
2022-11-16T22:59:26.374Z,12.00
2022-11-16T23:01:54.412Z,17.00
2022-11-16T23:04:22.475Z,10.00
2022-11-16T23:06:50.622Z,11.00
2022-11-16T23:09:20.081Z,12.75
2022-11-16T23:12:05.835Z,12.00
2022-11-16T23:14:51.264Z,12.50
2022-11-16T23:17:19.303Z,11.20
2022-11-16T23:20:04.883Z,10.60
2022-11-16T23:22:50.279Z,12.50
2022-11-16T23:25:37.420Z,10.60
2022-11-16T23:28:06.524Z,9.80
2022-11-16T23:30:34.714Z,12.00
2022-11-16T23:33:02.800Z,13.50
2022-11-16T23:35:30.829Z,11.60
2022-11-16T23:37:59.470Z,12.40
2022-11-16T23:40:29.884Z,10.20
2022-11-16T23:43:15.260Z,11.00
2022-11-16T23:45:43.655Z,16.25
2022-11-16T23:48:12.337Z,12.00
2022-11-16T23:50:40.391Z,10.20
2022-11-16T23:53:08.995Z,16.40
2022-11-16T23:55:39.347Z,12.60
2022-11-16T23:58:07.759Z,12.75
